LGKOLGRP

Guest
Details From LGKO - KOS
To LGRP - DIAGORAS
Flight Number -
Tags generated
Created
Modified
Stats Distance 54 nm / 100 km
Max Altitude 1,400 ft / 427 m
Waypoints 3
Social Downloads 15
Likes 0
Share VATSIM

Download

Looking for another format? Having issues loading an existing format? Contact us
Advertisement - Login to hide

Notes

Basic altitude profile: - Ascent Rate: 2500ft/min - Ascent Speed: 250kts - Cruise Altitude: 35000ft - Cruise Speed: 420kts - Descent Rate: 1500ft/min - Descent Speed: 250kts Options: - Use NATs: yes - Use PACOTS: yes - Use low airways: yes - Use high airways: yes

Route

LGKO BANRO LGRP

ID Type Via Altitude Latitude Longitude Leg Dist Tot Dist Heading (true) Name
O LGKO APT - 0 ft / 0 m 36.79440˚ 27.09076˚ - 0 nm - KOS
BANRO FIX - 1,400 ft / 427 m 36.49472˚ 27.99528˚ 47 nm 47 nm 112° / 113° -
O LGRP APT - 0 ft / 0 m 36.40542˚ 28.08619˚ 6 nm 54 nm 141° / 141° DIAGORAS

Altitude Profile

Advertisement - Login to hide

LGKO

Details ICAO LGKO (KGS)
Name KOS
Region Greece
Timezone Europe/Athens (UTC+3.0)
Stats Elevation 412 ft / 126 m (AMSL)
Location 36.794403° 27.090764°
Runways 1
Magnetic Variation 4.766° E

METAR

LGKO 271420Z 31011KT 9999 FEW018 26/16 Q1011

Decode

TAF

TAF LGKO 271100Z 2712/2812 VRB05KT 9999 FEW018 SCT025 PROB30 TEMPO 2712/2716 5000 RA SCT015 BKN025 PROB30 TEMPO 2712/2715 4000 TSRA SCT010 FEW018CB BKN020 BECMG 2712/2714 28010KT BECMG 2716/2718 34015KT

Decode

Departure Runways

ID Width Length Bearing (true) Bearing (mag) Surface Threshold Offset Overrun Length
14 148 ft / 45 m 7,923 ft / 2,415 m 148.29° 143.52° Asphalt 0 ft / 0 m 240 ft / 73 m
32 148 ft / 45 m 7,923 ft / 2,415 m 328.30° 323.53° Asphalt 0 ft / 0 m 205 ft / 62 m

LGRP

Details ICAO LGRP (RHO)
Name DIAGORAS
Region Greece
Timezone Europe/Athens (UTC+3.0)
Stats Elevation 17 ft / 5 m (AMSL)
Location 36.405420° 28.086193°
Runways 1
Magnetic Variation 4.822° E

METAR

LGRP 271420Z 26007KT 9999 FEW016TCU 25/17 Q1010 NOSIG

Decode

TAF

TAF LGRP 271100Z 2712/2812 04010KT 9999 FEW016 SCT025 PROB30 TEMPO 2712/2716 5000 RA SCT015 BKN025 PROB30 TEMPO 2712/2715 4000 TSRA SCT010 FEW018CB BKN020 BECMG 2713/2715 26010KT

Decode

Destination Runways

ID Width Length Bearing (true) Bearing (mag) Surface Threshold Offset Overrun Length
07 148 ft / 45 m 10,830 ft / 3,301 m 69.97° 65.15° Asphalt 0 ft / 0 m 0 ft / 0 m
25 148 ft / 45 m 10,830 ft / 3,301 m 249.99° 245.17° Asphalt 0 ft / 0 m 0 ft / 0 m

Approach Navaids

Runway Type Ident Frequency Range Bearing (true) Bearing (mag) Slope Elevation
25 Localiser IRDS 110.30 MHz 18 nm / 33 km 250.45° 245.62° - 17 ft / 5 m (AMSL)
25 Glidescope IRDS 110.30 MHz 10 nm / 19 km 249.98° 245.16° 3.00° 17 ft / 5 m (AMSL)

Popular Alternatives